Time;durP1;ratioP1;P1;durP2;ratioP2;P2;SDS_P1;SDS_P2;PMS_P1;PMS_P2;Temp;Humidity;BMP_temperature;BMP_pressure;BME280_temperature;BME280_humidity;BME280_pressure;Samples;Min_cycle;Max_cycle;Signal;HPM_P1;HPM_P2
2023/07/08 00:00:01;;;;;;;8.98;4.88;;;27.80;70.00;;;;;;7378544;19;20070;-72
2023/07/08 00:02:30;;;;;;;15.15;5.15;;;27.80;70.10;;;;;;7380888;19;20045;-72
2023/07/08 00:04:59;;;;;;;11.73;4.68;;;27.80;69.90;;;;;;7379634;19;20010;-72
2023/07/08 00:07:27;;;;;;;10.52;5.20;;;27.80;69.60;;;;;;7380320;19;20016;-72
2023/07/08 00:09:56;;;;;;;12.18;5.43;;;27.80;69.80;;;;;;7401883;19;20238;-72
2023/07/08 00:12:27;;;;;;;17.55;5.05;;;27.80;70.10;;;;;;7379484;19;20007;-72
2023/07/08 00:14:55;;;;;;;9.75;4.82;;;27.70;70.20;;;;;;7379639;19;20010;-72
2023/07/08 00:20:40;;;;;;;14.02;5.00;;;27.70;69.80;;;;;;7377441;19;20007;-72
2023/07/08 00:23:11;;;;;;;10.20;4.97;;;27.70;70.00;;;;;;7377882;19;20003;-73
2023/07/08 00:25:41;;;;;;;15.63;5.57;;;27.60;70.00;;;;;;7378164;19;20621;-72
2023/07/08 00:28:12;;;;;;;11.68;5.03;;;27.60;69.40;;;;;;7378295;19;20011;-72
2023/07/08 00:30:41;;;;;;;7.28;4.53;;;27.60;69.50;;;;;;7400917;19;20003;-72
2023/07/08 00:33:10;;;;;;;11.18;5.35;;;27.60;69.50;;;;;;7379886;19;20028;-71
2023/07/08 00:35:42;;;;;;;9.57;4.68;;;27.60;69.70;;;;;;7378981;19;20015;-72
2023/07/08 00:38:17;;;;;;;13.32;5.68;;;27.60;69.70;;;;;;7379434;19;20316;-72
2023/07/08 00:40:54;;;;;;;17.67;5.38;;;27.60;69.90;;;;;;7377635;19;20044;-72
2023/07/08 00:43:25;;;;;;;12.52;5.22;;;27.60;70.00;;;;;;7377839;19;20009;-72
2023/07/08 00:46:00;;;;;;;14.30;5.32;;;27.50;70.10;;;;;;7397579;19;20254;-72
2023/07/08 00:48:37;;;;;;;15.05;5.13;;;27.60;70.30;;;;;;7377302;19;20007;-72
2023/07/08 00:51:12;;;;;;;13.00;5.50;;;27.50;70.30;;;;;;7377795;19;20014;-72
2023/07/08 00:53:41;;;;;;;9.05;5.22;;;27.50;70.40;;;;;;7378785;19;20007;-72
2023/07/08 00:56:16;;;;;;;12.40;5.38;;;27.50;70.70;;;;;;7380080;19;20019;-72
2023/07/08 00:58:48;;;;;;;14.05;4.93;;;27.50;70.40;;;;;;7385323;19;20032;-71
2023/07/08 01:01:17;;;;;;;8.82;5.05;;;27.50;70.50;;;;;;7385604;19;20027;-72
2023/07/08 01:03:51;;;;;;;9.68;4.78;;;27.40;71.20;;;;;;7404893;19;20010;-72
2023/07/08 01:06:31;;;;;;;12.02;5.35;;;27.40;71.60;;;;;;7384805;19;20005;-71
2023/07/08 01:09:05;;;;;;;9.30;5.30;;;27.40;71.90;;;;;;7383796;19;20013;-71
2023/07/08 01:11:35;;;;;;;10.95;5.07;;;27.30;71.80;;;;;;7383994;19;20014;-72
2023/07/08 01:14:05;;;;;;;11.70;5.40;;;27.30;71.90;;;;;;7383806;19;20023;-72
2023/07/08 01:16:34;;;;;;;16.80;5.60;;;27.30;72.10;;;;;;7384903;19;20010;-72
2023/07/08 01:19:03;;;;;;;14.80;5.47;;;27.30;72.10;;;;;;7384975;19;20013;-72
2023/07/08 01:21:38;;;;;;;12.85;5.50;;;27.30;71.90;;;;;;7403789;19;20018;-72
2023/07/08 01:24:12;;;;;;;14.70;5.43;;;27.30;71.80;;;;;;7384743;19;20414;-72
2023/07/08 01:26:43;;;;;;;11.50;5.20;;;27.30;71.80;;;;;;7386722;19;20338;-72
2023/07/08 01:29:13;;;;;;;10.98;5.25;;;27.30;71.50;;;;;;7387505;19;20126;-71
2023/07/08 01:31:48;;;;;;;16.48;5.47;;;27.30;71.60;;;;;;7383255;19;20272;-71
2023/07/08 01:34:18;;;;;;;19.75;6.03;;;27.30;71.80;;;;;;7382585;19;20020;-71
2023/07/08 01:36:50;;;;;;;15.75;5.20;;;27.40;72.00;;;;;;7403899;19;20359;-71
2023/07/08 01:39:24;;;;;;;13.40;5.25;;;27.20;68.30;;;;;;7383173;19;20041;-71
2023/07/08 01:41:54;;;;;;;15.60;5.05;;;26.90;67.60;;;;;;7386286;19;20066;-72
2023/07/08 01:44:29;;;;;;;11.07;5.50;;;27.10;67.40;;;;;;7389345;19;20011;-71
2023/07/08 01:47:03;;;;;;;14.18;5.72;;;27.30;67.50;;;;;;7386627;19;20071;-71
2023/07/08 01:49:32;;;;;;;20.30;5.35;;;27.40;67.00;;;;;;7385245;19;20056;-72
2023/07/08 01:52:01;;;;;;;12.23;5.38;;;27.50;66.90;;;;;;7380721;19;20006;-72
2023/07/08 01:54:32;;;;;;;15.05;4.95;;;27.60;67.00;;;;;;7402443;19;20086;-72
2023/07/08 01:57:02;;;;;;;14.43;5.50;;;27.70;67.20;;;;;;7383015;19;20007;-72
2023/07/08 01:59:31;;;;;;;16.02;5.40;;;27.70;67.20;;;;;;7383157;19;19999;-72
2023/07/08 02:02:00;;;;;;;10.45;5.00;;;27.70;66.90;;;;;;7382579;19;20077;-72
2023/07/08 02:04:30;;;;;;;17.42;4.88;;;27.60;67.10;;;;;;7381412;19;20028;-72
2023/07/08 02:07:00;;;;;;;25.42;4.60;;;27.40;68.00;;;;;;7382534;19;20109;-72
2023/07/08 02:09:32;;;;;;;6.30;3.77;;;27.40;68.90;;;;;;7404128;19;20006;-72
2023/07/08 02:12:01;;;;;;;10.98;3.80;;;27.10;69.50;;;;;;7383925;19;20268;-72
2023/07/08 02:14:29;;;;;;;8.55;3.15;;;26.90;70.00;;;;;;7390212;19;20006;-72
2023/07/08 02:16:58;;;;;;;15.18;3.47;;;26.90;70.40;;;;;;7383968;19;20006;-72
2023/07/08 02:19:27;;;;;;;10.15;3.38;;;26.70;70.60;;;;;;7385641;19;20461;-73
2023/07/08 02:21:56;;;;;;;15.02;3.13;;;26.70;70.70;;;;;;7403717;19;20002;-73
2023/07/08 02:24:25;;;;;;;5.38;2.70;;;26.60;70.60;;;;;;7380304;19;20014;-73
2023/07/08 02:26:57;;;;;;;5.47;2.65;;;26.70;70.50;;;;;;7381852;19;20017;-73
2023/07/08 02:29:26;;;;;;;9.95;2.88;;;26.60;70.50;;;;;;7381959;19;20011;-73
2023/07/08 02:31:54;;;;;;;8.95;3.05;;;26.60;70.80;;;;;;7381875;19;20382;-72
2023/07/08 02:34:23;;;;;;;9.48;2.72;;;26.50;70.30;;;;;;7382327;19;20050;-72
2023/07/08 02:36:52;;;;;;;6.97;2.63;;;26.60;70.00;;;;;;7408075;19;20078;-72
2023/07/08 02:39:20;;;;;;;7.57;2.30;;;26.80;69.70;;;;;;7381083;19;20063;-72
2023/07/08 02:41:49;;;;;;;3.75;2.20;;;26.90;69.20;;;;;;7380652;19;20082;-72
2023/07/08 02:44:20;;;;;;;14.73;2.90;;;26.90;69.40;;;;;;7379416;19;20002;-71
2023/07/08 02:46:49;;;;;;;11.13;2.40;;;26.90;68.20;;;;;;7382189;19;20014;-71
2023/07/08 02:49:17;;;;;;;9.20;2.53;;;27.00;68.40;;;;;;7379593;19;20265;-72
2023/07/08 02:51:46;;;;;;;5.53;2.08;;;27.10;68.00;;;;;;7400984;19;20014;-72
2023/07/08 02:54:15;;;;;;;4.72;2.38;;;27.20;67.50;;;;;;7380512;19;20019;-72
2023/07/08 02:56:43;;;;;;;8.32;2.40;;;27.20;66.60;;;;;;7380507;19;20006;-72
2023/07/08 02:59:12;;;;;;;11.13;2.40;;;27.20;66.40;;;;;;7379921;19;20006;-72
2023/07/08 03:01:46;;;;;;;7.18;2.22;;;27.30;66.40;;;;;;7381151;19;20019;-72
2023/07/08 03:04:16;;;;;;;5.53;2.47;;;27.30;66.40;;;;;;7380644;19;20011;-72
2023/07/08 03:06:45;;;;;;;7.65;2.22;;;27.30;66.20;;;;;;7402634;19;20062;-72
2023/07/08 03:09:15;;;;;;;6.45;2.33;;;27.30;65.70;;;;;;7381785;19;20066;-72
2023/07/08 03:11:44;;;;;;;13.43;2.17;;;27.30;65.90;;;;;;7381043;19;20287;-71
2023/07/08 03:14:13;;;;;;;9.80;2.63;;;27.30;66.90;;;;;;7380277;19;20313;-72
2023/07/08 03:16:44;;;;;;;5.22;2.30;;;27.30;67.00;;;;;;7381049;19;20381;-71
2023/07/08 03:19:17;;;;;;;4.15;2.10;;;27.30;66.40;;;;;;7380879;19;20011;-72
2023/07/08 03:21:45;;;;;;;10.65;2.08;;;27.40;66.90;;;;;;7403203;19;20035;-71
2023/07/08 03:24:17;;;;;;;16.40;2.00;;;27.40;67.00;;;;;;7378974;19;20046;-72
2023/07/08 03:26:47;;;;;;;4.95;2.28;;;27.40;67.30;;;;;;7381767;19;20006;-71
2023/07/08 03:29:18;;;;;;;5.15;2.40;;;27.40;67.60;;;;;;7381205;19;20391;-72
2023/07/08 03:31:50;;;;;;;5.80;1.90;;;27.40;67.50;;;;;;7381033;19;20041;-73
2023/07/08 03:34:20;;;;;;;5.97;2.95;;;27.40;67.60;;;;;;7380958;19;20074;-73
2023/07/08 03:36:51;;;;;;;6.32;3.15;;;27.30;68.00;;;;;;7402335;19;20019;-73
2023/07/08 03:39:20;;;;;;;5.15;2.03;;;27.30;68.20;;;;;;7379865;19;20358;-73
2023/07/08 03:41:51;;;;;;;6.22;2.42;;;27.30;67.90;;;;;;7378877;19;20010;-73
2023/07/08 03:44:20;;;;;;;8.07;2.10;;;27.20;67.90;;;;;;7379327;19;20265;-73
2023/07/08 03:46:52;;;;;;;5.70;2.70;;;27.20;68.30;;;;;;7378606;19;20007;-73
2023/07/08 03:49:23;;;;;;;5.38;2.40;;;27.10;68.60;;;;;;7380112;19;20027;-73
2023/07/08 03:51:54;;;;;;;5.70;2.25;;;27.10;69.20;;;;;;7401238;19;20223;-74
2023/07/08 03:54:24;;;;;;;4.68;2.20;;;27.00;69.40;;;;;;7382066;19;19999;-73
2023/07/08 03:56:53;;;;;;;9.27;2.38;;;27.00;69.50;;;;;;7381175;19;20062;-73
2023/07/08 03:59:22;;;;;;;8.50;2.22;;;26.90;69.80;;;;;;7381797;19;20011;-73
2023/07/08 04:01:53;;;;;;;7.10;2.53;;;26.80;70.10;;;;;;7385120;19;20010;-73
2023/07/08 04:04:22;;;;;;;5.82;2.35;;;26.80;70.30;;;;;;7383025;19;20030;-72
2023/07/08 04:06:51;;;;;;;8.88;2.47;;;26.60;69.70;;;;;;7402791;19;20011;-72
2023/07/08 04:09:20;;;;;;;6.72;2.30;;;26.60;70.20;;;;;;7378364;19;20003;-71
2023/07/08 04:11:48;;;;;;;4.28;2.30;;;26.50;71.00;;;;;;7377524;19;20014;-70
2023/07/08 04:14:17;;;;;;;5.13;2.20;;;26.50;71.10;;;;;;7377097;19;20010;-71
2023/07/08 04:16:57;;;;;;;3.88;2.00;;;26.50;70.80;;;;;;7378862;19;20027;-71
2023/07/08 04:19:27;;;;;;;6.43;2.38;;;26.50;71.30;;;;;;7379679;19;20007;-70
2023/07/08 04:21:55;;;;;;;6.90;2.17;;;26.50;71.20;;;;;;7400344;19;20008;-71
2023/07/08 04:24:24;;;;;;;6.50;2.08;;;26.50;71.00;;;;;;7377318;19;20075;-71
2023/07/08 04:26:53;;;;;;;8.27;2.28;;;26.40;71.40;;;;;;7377670;19;20052;-71
2023/07/08 04:29:23;;;;;;;6.63;1.83;;;26.50;71.60;;;;;;7377801;19;20058;-71
2023/07/08 04:31:52;;;;;;;6.47;2.30;;;26.50;71.50;;;;;;7376482;19;20014;-72
2023/07/08 04:34:23;;;;;;;5.53;1.88;;;26.50;71.30;;;;;;7378438;19;20381;-72
2023/07/08 04:36:52;;;;;;;7.15;2.03;;;26.40;71.40;;;;;;7400081;19;20418;-72
2023/07/08 04:39:21;;;;;;;3.92;2.13;;;26.40;71.60;;;;;;7377523;19;20358;-72
2023/07/08 04:41:51;;;;;;;5.95;2.15;;;26.40;71.40;;;;;;7377551;19;20006;-72
2023/07/08 04:44:20;;;;;;;7.43;2.40;;;26.40;71.80;;;;;;7377025;19;20002;-71
2023/07/08 04:46:53;;;;;;;6.03;2.28;;;26.30;71.60;;;;;;7378095;19;20239;-72
2023/07/08 04:49:24;;;;;;;4.25;2.35;;;26.30;71.80;;;;;;7377027;19;20007;-70
2023/07/08 04:51:53;;;;;;;4.30;2.88;;;26.30;72.50;;;;;;7404269;19;20346;-71
2023/07/08 04:54:22;;;;;;;5.10;2.65;;;26.20;72.70;;;;;;7382224;19;20003;-71
2023/07/08 04:56:52;;;;;;;11.15;2.75;;;26.20;72.60;;;;;;7381626;19;20006;-71
2023/07/08 04:59:23;;;;;;;5.30;2.83;;;26.10;72.90;;;;;;7377784;19;20011;-71
2023/07/08 05:01:53;;;;;;;4.30;2.70;;;26.20;73.40;;;;;;7378151;19;20011;-70
2023/07/08 05:04:24;;;;;;;5.13;2.40;;;26.10;73.40;;;;;;7376924;19;20007;-71
2023/07/08 05:06:53;;;;;;;9.18;2.83;;;26.10;73.30;;;;;;7398683;19;20014;-71
2023/07/08 05:09:23;;;;;;;6.68;2.40;;;26.10;73.60;;;;;;7379813;19;20391;-70
2023/07/08 05:11:51;;;;;;;7.03;2.50;;;26.00;73.80;;;;;;7376092;19;20002;-70
2023/07/08 05:14:20;;;;;;;6.50;2.95;;;26.00;73.90;;;;;;7376841;19;20151;-71
2023/07/08 05:16:51;;;;;;;4.88;2.55;;;25.90;73.90;;;;;;7377328;19;20034;-71
2023/07/08 05:19:21;;;;;;;5.60;2.40;;;25.90;74.30;;;;;;7376783;19;20020;-70
2023/07/08 05:21:54;;;;;;;9.32;2.97;;;25.90;74.60;;;;;;7398300;19;20227;-71
2023/07/08 05:24:22;;;;;;;6.75;2.35;;;25.90;74.80;;;;;;7376430;19;20003;-71
2023/07/08 05:26:51;;;;;;;3.67;2.60;;;26.00;75.00;;;;;;7376452;19;20011;-71
2023/07/08 05:29:20;;;;;;;7.97;2.53;;;26.10;75.20;;;;;;7375570;19;20011;-71
2023/07/08 05:31:48;;;;;;;5.00;2.45;;;26.20;75.00;;;;;;7376436;19;20003;-71
2023/07/08 05:34:18;;;;;;;6.43;2.20;;;26.30;74.70;;;;;;7374772;19;20396;-71
2023/07/08 05:36:47;;;;;;;9.85;2.58;;;26.40;74.70;;;;;;7395966;19;20717;-71
2023/07/08 05:39:18;;;;;;;4.97;2.42;;;26.50;74.40;;;;;;7375732;19;20066;-71
2023/07/08 05:41:47;;;;;;;6.50;2.53;;;26.60;74.20;;;;;;7377629;19;20027;-71
2023/07/08 05:44:15;;;;;;;4.95;2.30;;;26.70;73.60;;;;;;7383252;19;20059;-71
2023/07/08 05:46:45;;;;;;;4.15;2.50;;;26.70;73.30;;;;;;7381745;19;20028;-71
2023/07/08 05:49:14;;;;;;;6.38;2.53;;;26.80;72.90;;;;;;7384037;19;20010;-71
2023/07/08 05:51:43;;;;;;;7.95;2.75;;;26.90;72.90;;;;;;7405089;19;20013;-70
2023/07/08 05:54:12;;;;;;;5.00;2.30;;;27.00;72.50;;;;;;7382727;19;20027;-71
2023/07/08 05:56:43;;;;;;;10.70;2.60;;;27.10;72.20;;;;;;7382859;19;20038;-71
2023/07/08 05:59:12;;;;;;;5.10;2.30;;;27.10;71.90;;;;;;7384097;19;20300;-71
2023/07/08 06:01:41;;;;;;;6.43;2.30;;;27.20;72.80;;;;;;7382063;19;20019;-71
2023/07/08 06:04:09;;;;;;;5.75;2.67;;;27.20;71.90;;;;;;7382836;19;20058;-72
2023/07/08 06:06:41;;;;;;;5.30;2.83;;;27.30;72.10;;;;;;7401962;19;20023;-71
2023/07/08 06:09:10;;;;;;;6.18;2.55;;;27.30;72.10;;;;;;7385872;19;20010;-70
2023/07/08 06:11:39;;;;;;;9.30;2.63;;;27.30;71.70;;;;;;7382776;19;20006;-71
2023/07/08 06:14:10;;;;;;;4.68;2.50;;;27.40;71.60;;;;;;7382336;19;20007;-71
2023/07/08 06:16:39;;;;;;;4.85;2.30;;;27.40;71.70;;;;;;7383720;19;20011;-72
2023/07/08 06:19:07;;;;;;;7.55;2.42;;;27.40;72.10;;;;;;7382168;19;20115;-71
2023/07/08 06:21:36;;;;;;;5.45;2.50;;;27.40;71.20;;;;;;7404150;19;20370;-71
2023/07/08 06:24:05;;;;;;;6.25;2.55;;;27.10;70.60;;;;;;7384334;19;20011;-71
2023/07/08 06:26:34;;;;;;;4.60;2.60;;;27.10;71.10;;;;;;7383507;19;20007;-71
2023/07/08 06:29:02;;;;;;;13.13;2.55;;;27.00;71.20;;;;;;7383180;19;20070;-71
2023/07/08 06:31:34;;;;;;;5.93;2.30;;;26.90;71.40;;;;;;7383658;19;20007;-72
2023/07/08 06:34:04;;;;;;;4.55;2.30;;;27.00;71.30;;;;;;7385829;19;20032;-71
2023/07/08 06:36:32;;;;;;;6.43;2.60;;;27.10;71.20;;;;;;7405703;19;20366;-71
2023/07/08 06:39:01;;;;;;;6.35;2.30;;;27.10;70.70;;;;;;7381092;19;20337;-72
2023/07/08 06:41:30;;;;;;;6.43;2.70;;;27.10;71.50;;;;;;7382246;19;20007;-71
2023/07/08 06:43:58;;;;;;;8.43;2.50;;;27.20;70.50;;;;;;7385996;19;20028;-71
2023/07/08 06:46:27;;;;;;;6.10;2.08;;;27.30;70.30;;;;;;7383262;19;20010;-71
2023/07/08 06:48:58;;;;;;;7.63;2.45;;;27.40;70.10;;;;;;7405457;19;20067;-71
2023/07/08 06:51:27;;;;;;;7.50;2.30;;;27.30;69.60;;;;;;7387577;19;20019;-71
2023/07/08 06:53:56;;;;;;;11.38;2.92;;;27.40;69.40;;;;;;7382194;19;20010;-71
2023/07/08 06:56:25;;;;;;;4.28;2.30;;;27.40;69.20;;;;;;7380877;19;20011;-71
2023/07/08 06:58:54;;;;;;;3.78;2.63;;;27.50;69.10;;;;;;7380496;19;20375;-71
2023/07/08 07:01:22;;;;;;;8.02;2.58;;;27.60;69.40;;;;;;7382384;19;20019;-72
2023/07/08 07:03:52;;;;;;;4.85;2.40;;;27.60;68.90;;;;;;7403415;19;20020;-72
2023/07/08 07:06:23;;;;;;;6.32;2.80;;;27.70;68.70;;;;;;7381180;19;20020;-71
2023/07/08 07:08:52;;;;;;;6.97;2.17;;;27.70;68.20;;;;;;7386337;19;20020;-71
2023/07/08 07:11:21;;;;;;;7.05;2.65;;;27.80;68.10;;;;;;7386038;19;20020;-71
2023/07/08 07:13:50;;;;;;;10.43;2.88;;;27.80;68.30;;;;;;7384397;19;20003;-71
2023/07/08 07:16:19;;;;;;;6.05;2.42;;;27.80;68.20;;;;;;7384568;19;19996;-71
2023/07/08 07:18:47;;;;;;;6.97;2.53;;;27.80;68.30;;;;;;7401459;19;20010;-71
2023/07/08 07:21:16;;;;;;;4.03;2.58;;;27.90;68.30;;;;;;7381096;19;20042;-71
2023/07/08 07:23:47;;;;;;;6.53;2.33;;;28.00;68.30;;;;;;7381531;19;20211;-71
2023/07/08 07:26:16;;;;;;;5.47;2.45;;;28.00;68.30;;;;;;7383379;19;20354;-71
2023/07/08 07:28:45;;;;;;;5.47;2.60;;;28.00;68.30;;;;;;7385749;19;20013;-71
2023/07/08 07:31:14;;;;;;;4.75;2.70;;;28.10;68.30;;;;;;7384920;19;20019;-71
2023/07/08 07:33:42;;;;;;;10.82;3.10;;;28.10;68.30;;;;;;7408197;19;20031;-71
2023/07/08 07:36:11;;;;;;;3.85;2.53;;;28.20;68.40;;;;;;7385413;19;20291;-71
2023/07/08 07:38:41;;;;;;;5.68;2.65;;;28.20;68.50;;;;;;7386432;19;20405;-70
2023/07/08 07:41:12;;;;;;;10.00;2.40;;;28.30;68.20;;;;;;7387188;19;20007;-70
2023/07/08 07:43:41;;;;;;;8.27;2.42;;;28.30;68.20;;;;;;7389012;19;20063;-70
2023/07/08 07:46:10;;;;;;;8.98;2.85;;;28.30;69.30;;;;;;7383021;19;20011;-71
2023/07/08 07:48:39;;;;;;;8.27;2.70;;;28.30;68.50;;;;;;7406894;19;20003;-71
2023/07/08 07:51:10;;;;;;;7.75;2.78;;;28.30;68.20;;;;;;7383399;19;20011;-71
2023/07/08 07:53:39;;;;;;;;;;;28.30;68.30;;;;;;7388591;19;20079;-71
2023/07/08 07:56:07;;;;;;;8.68;2.95;;;28.40;68.50;;;;;;7386601;19;20267;-71
2023/07/08 07:58:38;;;;;;;6.97;2.95;;;28.40;68.40;;;;;;7386923;19;20434;-71
2023/07/08 08:01:07;;;;;;;9.45;3.40;;;28.40;68.40;;;;;;7384581;19;20006;-71
2023/07/08 08:03:36;;;;;;;8.88;3.30;;;28.50;68.00;;;;;;7401382;19;20393;-72
2023/07/08 08:06:05;;;;;;;7.60;2.83;;;28.50;67.80;;;;;;7380016;19;20015;-72
2023/07/08 08:08:33;;;;;;;7.28;3.15;;;28.50;67.70;;;;;;7380470;19;20270;-72
2023/07/08 08:11:02;;;;;;;5.10;2.50;;;28.60;67.80;;;;;;7378862;19;20011;-72
2023/07/08 08:13:31;;;;;;;8.35;3.10;;;28.60;67.70;;;;;;7379604;19;20019;-72
2023/07/08 08:16:02;;;;;;;5.35;2.60;;;28.60;67.50;;;;;;7381109;19;20018;-72
2023/07/08 08:18:31;;;;;;;8.73;2.90;;;28.40;67.60;;;;;;7404083;19;20019;-72
2023/07/08 08:21:00;;;;;;;7.75;2.80;;;28.50;67.70;;;;;;7382143;19;20007;-72
2023/07/08 08:23:29;;;;;;;6.22;2.75;;;28.40;68.00;;;;;;7381790;19;20084;-72
2023/07/08 08:25:59;;;;;;;10.18;3.03;;;28.50;68.20;;;;;;7378506;19;20019;-71
2023/07/08 08:28:28;;;;;;;5.75;2.88;;;28.60;68.50;;;;;;7379515;19;20017;-70
2023/07/08 08:30:57;;;;;;;5.43;3.00;;;28.70;69.10;;;;;;7400217;19;20006;-72
2023/07/08 08:33:28;;;;;;;7.05;3.00;;;28.50;67.50;;;;;;7405265;19;20027;-71
2023/07/08 08:35:57;;;;;;;9.40;3.33;;;28.60;67.70;;;;;;7383591;19;20007;-71
2023/07/08 08:38:27;;;;;;;7.22;2.95;;;28.30;68.20;;;;;;7383943;19;20014;-72
2023/07/08 08:40:56;;;;;;;9.52;3.25;;;28.40;68.60;;;;;;7383653;19;20506;-71
2023/07/08 08:43:32;;;;;;;9.43;3.15;;;28.40;68.60;;;;;;7381370;19;20027;-71
2023/07/08 08:46:06;;;;;;;7.32;2.92;;;28.50;69.10;;;;;;7378047;19;20488;-71
2023/07/08 08:48:44;;;;;;;7.68;2.83;;;28.40;68.70;;;;;;7398190;19;20244;-71
2023/07/08 08:51:17;;;;;;;8.65;3.08;;;28.30;69.40;;;;;;7378389;19;20020;-71
2023/07/08 08:53:47;;;;;;;5.72;3.28;;;28.40;69.30;;;;;;7378566;19;20010;-71
2023/07/08 08:56:23;;;;;;;5.85;2.88;;;28.40;69.40;;;;;;7378938;19;20014;-71
2023/07/08 08:59:00;;;;;;;11.35;3.63;;;28.50;69.40;;;;;;7377761;19;20358;-72
2023/07/08 09:01:29;;;;;;;8.88;3.17;;;28.50;69.00;;;;;;7377085;19;20010;-71
2023/07/08 09:04:08;;;;;;;13.40;3.38;;;28.60;69.00;;;;;;7380978;19;20020;-70
2023/07/08 09:06:38;;;;;;;8.52;3.38;;;28.50;69.10;;;;;;7398772;19;20007;-70
2023/07/08 09:09:16;;;;;;;6.95;2.97;;;28.40;69.50;;;;;;7376658;19;20067;-69
2023/07/08 09:11:55;;;;;;;7.65;3.17;;;28.50;69.30;;;;;;7377509;19;20076;-72
2023/07/08 09:14:27;;;;;;;8.60;2.97;;;28.30;69.20;;;;;;7378025;19;20066;-72
2023/07/08 09:17:08;;;;;;;8.75;3.10;;;28.60;69.00;;;;;;7381677;19;20007;-72
2023/07/08 09:19:43;;;;;;;7.43;3.20;;;28.60;68.30;;;;;;7382654;19;20009;-73
2023/07/08 09:22:18;;;;;;;4.43;2.85;;;28.70;68.00;;;;;;7384709;19;20389;-73
2023/07/08 09:24:54;;;;;;;4.65;2.90;;;28.90;67.20;;;;;;7403378;19;20011;-71
2023/07/08 09:27:22;;;;;;;6.55;2.90;;;28.90;67.30;;;;;;7381270;19;20010;-71
2023/07/08 09:29:51;;;;;;;4.88;2.65;;;29.00;67.30;;;;;;7382927;19;20398;-70
2023/07/08 09:32:23;;;;;;;9.50;2.85;;;29.10;66.10;;;;;;7384121;19;20070;-73
2023/07/08 09:34:56;;;;;;;7.05;3.05;;;29.20;66.60;;;;;;7383771;19;20020;-71
2023/07/08 09:37:28;;;;;;;7.40;2.72;;;29.20;66.10;;;;;;7383948;19;20291;-71
2023/07/08 09:39:59;;;;;;;7.68;3.00;;;29.20;66.20;;;;;;7406127;19;20236;-71
2023/07/08 09:42:31;;;;;;;6.13;3.20;;;29.30;66.00;;;;;;7406695;19;20024;-71
2023/07/08 09:45:02;;;;;;;6.00;3.15;;;29.30;66.70;;;;;;7382900;19;20012;-72
2023/07/08 09:47:35;;;;;;;8.80;3.35;;;29.40;66.80;;;;;;7384229;19;20007;-71
2023/07/08 09:50:18;;;;;;;10.85;3.17;;;29.40;67.20;;;;;;7384597;19;20011;-72
2023/07/08 09:52:48;;;;;;;5.30;2.75;;;29.40;66.30;;;;;;7382822;19;20007;-73
2023/07/08 09:55:17;;;;;;;6.50;2.95;;;29.40;66.20;;;;;;7381711;19;22306;-72
2023/07/08 09:57:48;;;;;;;5.72;2.63;;;29.40;65.90;;;;;;7404797;19;20015;-71
2023/07/08 10:00:18;;;;;;;10.02;3.22;;;29.40;66.50;;;;;;7382691;19;20021;-71
2023/07/08 10:02:50;;;;;;;8.05;2.92;;;29.40;66.50;;;;;;7383018;19;20013;-71
2023/07/08 10:05:26;;;;;;;5.45;2.90;;;29.50;66.80;;;;;;7382374;19;20006;-73
2023/07/08 10:07:59;;;;;;;6.15;3.38;;;29.40;66.30;;;;;;7382194;19;20007;-72
2023/07/08 10:10:32;;;;;;;11.07;3.20;;;29.50;66.20;;;;;;7383097;19;20066;-72
2023/07/08 10:13:05;;;;;;;4.50;2.88;;;29.50;65.80;;;;;;7382654;19;20024;-73
2023/07/08 10:15:38;;;;;;;4.32;2.92;;;29.50;66.10;;;;;;7405020;19;20006;-71
2023/07/08 10:18:09;;;;;;;5.72;2.92;;;29.50;66.40;;;;;;7382218;19;20020;-74
2023/07/08 10:20:53;;;;;;;4.47;3.10;;;29.50;66.60;;;;;;7382586;19;20002;-73
2023/07/08 10:23:33;;;;;;;9.52;3.72;;;29.60;65.70;;;;;;7381524;19;20030;-72
2023/07/08 10:26:11;;;;;;;8.10;2.87;;;29.40;66.20;;;;;;7382052;19;20015;-72
2023/07/08 10:28:46;;;;;;;15.45;3.40;;;29.50;66.40;;;;;;7382190;19;20014;-71
2023/07/08 10:31:27;;;;;;;10.00;3.20;;;29.60;66.70;;;;;;7382695;19;20011;-72
2023/07/08 10:34:20;;;;;;;7.80;3.00;;;29.70;66.50;;;;;;7403888;19;20024;-71
2023/07/08 10:36:59;;;;;;;5.32;3.15;;;29.80;65.90;;;;;;7385772;19;20007;-71
2023/07/08 10:39:55;;;;;;;5.22;2.95;;;29.80;65.40;;;;;;7384561;19;20007;-71
2023/07/08 10:42:38;;;;;;;5.78;3.28;;;29.80;65.10;;;;;;7381071;19;20062;-70
2023/07/08 10:45:15;;;;;;;3.60;2.88;;;29.90;65.40;;;;;;7381195;19;20064;-71
2023/07/08 10:47:57;;;;;;;4.03;3.10;;;29.90;64.40;;;;;;7381104;19;20566;-71
2023/07/08 10:50:42;;;;;;;9.27;2.88;;;30.00;64.60;;;;;;7383088;19;20070;-71
2023/07/08 10:53:33;;;;;;;5.50;3.10;;;30.00;64.60;;;;;;7384960;19;20460;-71
2023/07/08 10:56:09;;;;;;;9.65;3.25;;;30.10;64.70;;;;;;7385616;19;20074;-72
2023/07/08 10:59:11;;;;;;;11.57;4.10;;;30.20;64.50;;;;;;7380282;19;20416;-71
2023/07/08 11:01:53;;;;;;;9.05;3.50;;;30.30;64.00;;;;;;7379366;19;20338;-71
2023/07/08 11:04:40;;;;;;;5.82;3.00;;;30.30;63.90;;;;;;7381042;19;20013;-71
2023/07/08 11:07:16;;;;;;;7.20;3.17;;;30.40;63.80;;;;;;7379923;19;20022;-70
2023/07/08 11:09:54;;;;;;;6.95;3.50;;;30.50;63.80;;;;;;7400315;19;20007;-71
2023/07/08 11:12:29;;;;;;;9.82;2.88;;;30.60;63.80;;;;;;7381106;19;20007;-71
2023/07/08 11:15:04;;;;;;;7.65;3.38;;;30.70;63.80;;;;;;7382476;19;19999;-71
2023/07/08 11:17:40;;;;;;;6.97;3.67;;;30.70;62.70;;;;;;7384610;19;20228;-72
2023/07/08 11:20:19;;;;;;;5.88;3.38;;;30.80;62.10;;;;;;7381133;19;20038;-72
2023/07/08 11:22:53;;;;;;;6.85;3.53;;;30.80;61.50;;;;;;7380501;19;20003;-72
2023/07/08 11:25:27;;;;;;;5.82;3.55;;;30.80;62.00;;;;;;7379790;19;20010;-71
2023/07/08 11:28:00;;;;;;;6.53;3.40;;;30.90;62.20;;;;;;7401122;19;20014;-74
2023/07/08 11:30:32;;;;;;;8.25;4.05;;;30.90;61.70;;;;;;7380353;19;20003;-70
2023/07/08 11:33:08;;;;;;;12.95;3.40;;;30.80;61.90;;;;;;7379751;19;20007;-67
2023/07/08 11:35:43;;;;;;;7.65;4.20;;;30.80;63.00;;;;;;7380830;19;20035;-72
2023/07/08 11:38:16;;;;;;;9.65;3.53;;;30.90;62.90;;;;;;7378589;19;20531;-72
2023/07/08 11:40:59;;;;;;;7.47;3.38;;;31.00;61.70;;;;;;7377634;19;20002;-69
2023/07/08 11:43:30;;;;;;;10.75;4.05;;;31.00;61.20;;;;;;7382794;19;20010;-70
2023/07/08 11:46:00;;;;;;;8.10;3.80;;;31.00;61.10;;;;;;7384905;19;20019;-71
2023/07/08 11:48:33;;;;;;;6.88;3.40;;;31.10;61.90;;;;;;7382361;19;20017;-71
2023/07/08 11:51:07;;;;;;;7.72;3.40;;;31.20;62.10;;;;;;7404147;19;20006;-72
2023/07/08 11:53:41;;;;;;;7.13;3.67;;;31.30;61.80;;;;;;7383238;19;20010;-71
2023/07/08 11:56:26;;;;;;;7.63;3.30;;;31.40;62.00;;;;;;7382817;19;20003;-71
2023/07/08 11:59:12;;;;;;;4.90;3.33;;;31.40;61.30;;;;;;7382730;19;20015;-70
2023/07/08 12:01:48;;;;;;;9.95;4.05;;;31.50;60.50;;;;;;7381193;19;20007;-72
2023/07/08 12:04:27;;;;;;;15.32;9.18;;;31.60;61.20;;;;;;7381918;19;20014;-72
2023/07/08 12:07:08;;;;;;;6.22;3.60;;;31.60;60.80;;;;;;7381099;19;20003;-71
2023/07/08 12:09:48;;;;;;;7.03;3.30;;;31.60;59.30;;;;;;7381262;19;20024;-72
2023/07/08 12:12:33;;;;;;;6.38;3.28;;;31.70;59.60;;;;;;7404115;19;20010;-70
2023/07/08 12:15:12;;;;;;;16.77;2.95;;;31.70;59.20;;;;;;7385712;19;20010;-70
2023/07/08 12:17:41;;;;;;;4.90;2.95;;;31.70;59.40;;;;;;7380381;19;20003;-70
2023/07/08 12:20:21;;;;;;;8.20;3.10;;;31.80;58.90;;;;;;7380452;19;20079;-70
2023/07/08 12:22:50;;;;;;;9.93;3.70;;;31.80;58.30;;;;;;7379707;19;20074;-70
2023/07/08 12:25:21;;;;;;;8.25;3.10;;;31.90;57.90;;;;;;7381230;19;20070;-71
2023/07/08 12:27:52;;;;;;;4.90;2.72;;;31.80;57.50;;;;;;7380782;19;20062;-70
2023/07/08 12:30:21;;;;;;;7.60;2.92;;;32.00;57.40;;;;;;7379013;19;20576;-69
2023/07/08 12:32:51;;;;;;;5.28;3.08;;;32.10;57.90;;;;;;7400306;19;20035;-71
2023/07/08 12:35:25;;;;;;;7.50;2.97;;;32.10;58.30;;;;;;7380183;19;20005;-70
2023/07/08 12:37:56;;;;;;;3.75;2.75;;;32.20;58.00;;;;;;7379824;19;20257;-70
2023/07/08 12:40:25;;;;;;;6.30;3.55;;;32.30;58.00;;;;;;7379703;19;20242;-70
2023/07/08 12:42:59;;;;;;;8.95;3.80;;;32.30;57.90;;;;;;7380515;19;20007;-70
2023/07/08 12:45:29;;;;;;;4.78;3.20;;;32.40;58.00;;;;;;7380619;19;20407;-70
2023/07/08 12:48:00;;;;;;;11.70;3.40;;;32.50;58.60;;;;;;7401267;19;20070;-71
2023/07/08 12:50:29;;;;;;;;;;;32.50;57.20;;;;;;7379876;19;20291;-69
2023/07/08 12:53:03;;;;;;;4.80;3.05;;;32.40;56.40;;;;;;7385579;19;19972;-70
2023/07/08 12:55:31;;;;;;;7.13;3.30;;;32.30;57.00;;;;;;7386920;19;20006;-70
2023/07/08 12:58:04;;;;;;;8.70;3.33;;;32.30;57.30;;;;;;7385753;19;20294;-70
2023/07/08 13:00:35;;;;;;;7.30;3.05;;;32.40;57.30;;;;;;7387468;19;20338;-70
2023/07/08 13:03:09;;;;;;;7.05;2.72;;;32.50;57.20;;;;;;7406675;19;20350;-70
2023/07/08 13:05:38;;;;;;;7.43;2.88;;;32.50;56.20;;;;;;7386937;19;20090;-70
2023/07/08 13:08:07;;;;;;;10.85;2.95;;;32.40;56.30;;;;;;7384159;19;20062;-70
2023/07/08 13:10:38;;;;;;;11.80;3.08;;;32.40;56.00;;;;;;7385877;19;20398;-70